首页
METAR-TAF:

METAR-TAF

机场 :

Hays, 堪薩斯州, 美国

纬度: 38-51N, 经度: 099-16W, 海拔: 609米

当前天气观测

该预报发布于30分钟前的11:56 UTC
风速3节,风向西转西南
温度 19°C
湿度 83%
气压 1022 hPa
能見度: 16.1公里
天空无云

METAR: KHYS 251156Z AUTO 25003KT 10SM CLR 19/16 A3018 RMK AO2 SLP204 T01940161 10217 20189 51006

时间: 07:26 (12:26 UTC)

预报

该预报发布于1小时和6分钟前的11:20 UTC
预报有效从25日的 12点(UTC)到 26日的 12点(UTC)
风速4节,风向
能見度: 10公里
天空无云
从 25日的 1800点(UTC)
风速12节,风向南转南东
能見度: 10公里
少量云层高于25000英尺

TAF: KHYS 251120Z 2512/2612 18004KT P6SM SKC FM251800 16012KT P6SM FEW250

超过4000个机场的气象观测和天气预报(METAR&TAF报告)。

可查询的气象台以黄色和红色小点在地图上表示。

将鼠标移到小点上方,可查看气象台名称。

然后点击查看天气观测和预报。

如需切换地图:点击带黑十字的绿色按钮放大地图;点击带横线的绿色按钮缩小地图;或者点击绿色箭头查看邻近地区的地图。


METAR-TAF: